Summit, South Carolina
Current Conditions -  °F | °C
As of 1:56 PM on Thursday 23 Oct 2014 (Local Time) from KCAE Reporting Station
Clear Clear  
Wind Chill: 69°   Ceiling: Unl
Heat Index: 69°   Visibility: 10mi
Dew Point: 38°   Wind: 10mph
Humidity: 32%   Direction: 320°NW
Pressure: 30.03"   Gusts: NA
Location:  33.8822°N, 81.433°W
Report Text: KCAE 231756Z 32009KT 10SM CLR 21/03 A3003 RMK AO2 SLP166 T02060033 10206 20050 58025
Loading
Personal Weather Stations






























Interactive Weather Map
Tropical Storm Tracking
New forecast layout! Learn more

10-Day Weather Forecast

Advertisements
Track Severe Weather on mobile